Time;durP1;ratioP1;P1;durP2;ratioP2;P2;SDS_P1;SDS_P2;PMS_P1;PMS_P2;Temp;Humidity;BMP_temperature;BMP_pressure;BME280_temperature;BME280_humidity;BME280_pressure;Samples;Min_cycle;Max_cycle;Signal;HPM_P1;HPM_P2
2023/08/11 00:01:27;;;;;;;4.95;2.50;;;17.70;99.90;;;;;;5105996;28;20115;-80
2023/08/11 00:03:52;;;;;;;6.63;2.90;;;17.70;99.90;;;;;;5112287;28;20082;-79
2023/08/11 00:06:18;;;;;;;5.00;2.65;;;17.60;99.90;;;;;;5106339;28;20075;-81
2023/08/11 00:08:44;;;;;;;6.28;2.90;;;17.60;99.90;;;;;;5116538;28;20115;-79
2023/08/11 00:11:11;;;;;;;6.88;3.47;;;17.50;99.90;;;;;;5106592;28;20062;-80
2023/08/11 00:13:37;;;;;;;5.47;3.00;;;17.50;99.90;;;;;;5127714;28;20091;-80
2023/08/11 00:16:04;;;;;;;3.92;2.78;;;17.40;99.90;;;;;;5111908;28;20051;-81
2023/08/11 00:18:31;;;;;;;5.93;3.38;;;17.40;99.90;;;;;;5126262;28;20413;-80
2023/08/11 00:20:56;;;;;;;4.47;2.75;;;17.30;99.90;;;;;;5108184;28;20482;-80
2023/08/11 00:23:22;;;;;;;6.07;3.10;;;17.20;99.90;;;;;;5111533;28;20063;-79
2023/08/11 00:25:50;;;;;;;5.22;2.60;;;17.10;99.90;;;;;;5113362;28;20036;-79
2023/08/11 00:28:16;;;;;;;5.68;2.88;;;17.10;99.90;;;;;;5125546;28;20059;-80
2023/08/11 00:30:42;;;;;;;8.07;3.42;;;17.00;99.90;;;;;;5122389;28;20067;-82
2023/08/11 00:33:07;;;;;;;4.80;3.03;;;17.00;99.90;;;;;;5105681;28;20058;-81
2023/08/11 00:35:33;;;;;;;4.70;2.80;;;16.90;99.90;;;;;;5120960;28;20097;-81
2023/08/11 00:37:59;;;;;;;6.32;3.13;;;16.80;99.90;;;;;;5121510;28;20042;-80
2023/08/11 00:40:24;;;;;;;6.45;3.58;;;16.80;99.90;;;;;;5120569;28;20122;-80
2023/08/11 00:42:50;;;;;;;7.05;3.38;;;16.80;99.90;;;;;;5121224;28;20058;-82
2023/08/11 00:45:16;;;;;;;7.05;3.47;;;16.70;99.90;;;;;;5103296;28;20105;-80
2023/08/11 00:47:43;;;;;;;5.88;3.00;;;16.60;99.90;;;;;;5101722;28;20535;-81
2023/08/11 00:50:11;;;;;;;6.70;3.40;;;16.60;99.90;;;;;;5111901;28;20045;-80
2023/08/11 00:52:38;;;;;;;;;;;16.60;99.90;;;;;;5122608;28;20384;-80
2023/08/11 00:55:07;;;;;;;4.28;3.22;;;16.50;99.90;;;;;;5120897;28;19923;-80
2023/08/11 00:57:35;;;;;;;6.68;3.08;;;16.50;99.90;;;;;;5102862;28;20044;-81
2023/08/11 01:00:11;;;;;;;4.50;3.15;;;16.50;99.90;;;;;;5122953;28;20047;-80
2023/08/11 01:02:37;;;;;;;5.53;3.35;;;16.40;99.90;;;;;;5123141;27;20050;-81
2023/08/11 01:05:04;;;;;;;4.50;3.20;;;16.40;99.90;;;;;;5112068;28;20061;-81
2023/08/11 01:07:43;;;;;;;4.55;3.40;;;16.30;99.90;;;;;;5120807;28;20036;-81
2023/08/11 01:10:21;;;;;;;7.63;3.50;;;16.40;99.90;;;;;;5111624;28;20085;-79
2023/08/11 01:13:14;;;;;;;7.65;4.13;;;16.30;99.90;;;;;;5122042;28;20039;-80
2023/08/11 01:15:44;;;;;;;7.18;3.95;;;16.30;99.90;;;;;;5101862;28;20048;-80
2023/08/11 01:18:12;;;;;;;8.13;4.15;;;16.30;99.90;;;;;;5102798;28;20082;-81
2023/08/11 01:20:39;;;;;;;8.27;3.90;;;16.20;99.90;;;;;;5103727;28;20044;-81
2023/08/11 01:23:06;;;;;;;7.73;4.37;;;16.20;99.90;;;;;;5105408;28;20040;-81
2023/08/11 01:25:36;;;;;;;8.77;4.28;;;16.20;99.90;;;;;;5108264;28;20047;-81
2023/08/11 01:28:02;;;;;;;9.00;4.35;;;16.20;99.90;;;;;;5108855;28;20075;-80
2023/08/11 01:30:29;;;;;;;5.63;4.45;;;16.10;99.90;;;;;;5108447;28;20071;-80
2023/08/11 01:32:56;;;;;;;7.97;4.00;;;16.10;99.90;;;;;;5122661;28;20460;-80
2023/08/11 01:35:22;;;;;;;6.80;4.53;;;16.10;99.90;;;;;;5122368;28;20050;-80
2023/08/11 01:37:48;;;;;;;6.18;4.43;;;16.10;99.90;;;;;;5103645;28;20051;-80
2023/08/11 01:40:14;;;;;;;5.85;4.88;;;16.00;99.90;;;;;;5100620;28;20063;-80
2023/08/11 01:42:42;;;;;;;7.28;4.75;;;16.00;99.90;;;;;;5106402;28;20035;-81
2023/08/11 01:45:09;;;;;;;10.32;5.65;;;15.90;99.90;;;;;;5117824;28;20039;-81
2023/08/11 01:47:38;;;;;;;8.27;5.72;;;16.00;99.90;;;;;;5116015;28;20043;-80
2023/08/11 01:50:06;;;;;;;9.70;5.07;;;15.90;99.90;;;;;;5119522;28;20480;-81
2023/08/11 01:52:37;;;;;;;;;;;15.90;99.90;;;;;;5116360;28;20039;-81
2023/08/11 01:55:06;;;;;;;8.32;5.55;;;15.90;99.90;;;;;;5099333;28;19919;-81
2023/08/11 01:57:32;;;;;;;9.20;5.25;;;15.90;99.90;;;;;;5108358;28;20036;-80
2023/08/11 02:00:01;;;;;;;9.95;5.30;;;15.80;99.90;;;;;;5100767;28;20402;-81
2023/08/11 02:02:27;;;;;;;10.02;6.10;;;16.00;99.90;;;;;;5100826;28;20054;-80
2023/08/11 02:04:52;;;;;;;7.82;5.75;;;15.80;99.90;;;;;;5101542;28;20040;-80
2023/08/11 02:07:18;;;;;;;9.02;5.82;;;15.90;99.90;;;;;;5099457;28;20109;-80
2023/08/11 02:09:46;;;;;;;12.80;5.90;;;15.90;99.90;;;;;;5115214;28;20055;-82
2023/08/11 02:12:12;;;;;;;;;;;15.80;99.90;;;;;;5120191;28;20066;-81
2023/08/11 02:14:38;;;;;;;9.35;6.30;;;15.80;99.90;;;;;;5126496;28;19919;-81
2023/08/11 02:17:04;;;;;;;10.50;6.53;;;15.80;99.90;;;;;;5132598;28;20223;-80
2023/08/11 02:19:29;;;;;;;10.00;6.53;;;15.80;99.90;;;;;;5116369;28;20477;-80
2023/08/11 02:21:55;;;;;;;13.45;7.68;;;15.80;99.90;;;;;;5118385;28;20065;-81
2023/08/11 02:24:21;;;;;;;11.65;7.60;;;15.80;99.90;;;;;;5079266;28;1144836;-80
2023/08/11 02:26:47;;;;;;;14.82;8.15;;;15.80;99.90;;;;;;5110131;28;20072;-81
2023/08/11 02:29:12;;;;;;;14.77;8.57;;;15.80;99.90;;;;;;5082023;28;20044;-80
2023/08/11 02:31:38;;;;;;;12.18;8.13;;;15.80;99.90;;;;;;5100471;28;20043;-80
2023/08/11 02:34:04;;;;;;;15.80;10.90;;;15.80;99.90;;;;;;5100799;28;20048;-80
2023/08/11 02:36:30;;;;;;;14.48;11.00;;;15.80;99.90;;;;;;5102109;28;20044;-81
2023/08/11 02:38:56;;;;;;;16.30;10.38;;;15.80;99.90;;;;;;5102322;28;20511;-81
2023/08/11 02:41:21;;;;;;;17.48;10.60;;;15.90;99.90;;;;;;5116880;28;20036;-79
2023/08/11 02:43:47;;;;;;;17.02;10.73;;;15.90;99.90;;;;;;5118983;28;20056;-81
2023/08/11 02:46:13;;;;;;;13.55;10.30;;;16.00;99.90;;;;;;5104680;28;20083;-80
2023/08/11 02:48:39;;;;;;;16.13;10.75;;;16.00;99.90;;;;;;5097869;28;20036;-80
2023/08/11 02:51:06;;;;;;;15.00;11.35;;;15.90;99.90;;;;;;5107864;28;20114;-80
2023/08/11 02:53:32;;;;;;;14.00;9.85;;;16.00;99.90;;;;;;5119177;28;20043;-79
2023/08/11 02:56:00;;;;;;;15.30;10.32;;;16.00;99.90;;;;;;5106980;28;20051;-80
2023/08/11 02:58:27;;;;;;;15.25;10.07;;;16.00;99.90;;;;;;5106456;28;20126;-81
2023/08/11 03:00:53;;;;;;;13.55;10.23;;;16.00;99.90;;;;;;5099362;28;20068;-81
2023/08/11 03:03:18;;;;;;;13.65;10.32;;;16.00;99.90;;;;;;5081400;28;20040;-79
2023/08/11 03:05:44;;;;;;;17.30;10.63;;;16.00;99.90;;;;;;5115862;28;20047;-80
2023/08/11 03:08:10;;;;;;;12.27;9.73;;;16.00;99.90;;;;;;5100898;28;20043;-80
2023/08/11 03:10:36;;;;;;;12.90;9.13;;;16.00;99.90;;;;;;5101178;28;20040;-81
2023/08/11 03:13:01;;;;;;;13.68;9.73;;;15.90;99.90;;;;;;5104754;28;20032;-80
2023/08/11 03:15:27;;;;;;;13.80;9.63;;;15.90;99.90;;;;;;5102512;28;20079;-81
2023/08/11 03:17:54;;;;;;;18.33;10.93;;;15.90;99.90;;;;;;5122450;28;20209;-82
2023/08/11 03:20:20;;;;;;;16.75;10.30;;;15.90;99.90;;;;;;5123570;28;20040;-79
2023/08/11 03:22:46;;;;;;;15.52;10.15;;;15.90;99.90;;;;;;5122481;28;20048;-79
2023/08/11 03:25:12;;;;;;;12.18;10.30;;;15.90;99.90;;;;;;5087184;28;20106;-79
2023/08/11 03:27:42;;;;;;;13.45;10.10;;;15.90;99.90;;;;;;5102382;28;20048;-81
2023/08/11 03:30:12;;;;;;;19.27;9.90;;;15.90;99.90;;;;;;5103185;28;20048;-82
2023/08/11 03:32:38;;;;;;;13.55;9.77;;;15.90;99.90;;;;;;5084910;28;20044;-80
2023/08/11 03:35:07;;;;;;;14.15;9.25;;;15.90;99.90;;;;;;5107675;28;20519;-80
2023/08/11 03:37:34;;;;;;;19.55;10.40;;;16.00;99.90;;;;;;5124728;28;20088;-80
2023/08/11 03:39:59;;;;;;;19.33;10.00;;;15.90;99.90;;;;;;5128356;28;20044;-81
2023/08/11 03:42:26;;;;;;;15.00;9.20;;;15.90;99.90;;;;;;5117229;28;20040;-81
2023/08/11 03:44:52;;;;;;;17.83;9.38;;;15.90;99.90;;;;;;5126900;28;20039;-80
2023/08/11 03:47:19;;;;;;;13.02;9.43;;;15.90;99.90;;;;;;5127633;28;20040;-81
2023/08/11 03:49:48;;;;;;;14.75;10.05;;;15.80;99.90;;;;;;5106418;28;20062;-80
2023/08/11 03:52:14;;;;;;;15.77;9.23;;;15.90;99.90;;;;;;5105463;28;20103;-80
2023/08/11 03:54:40;;;;;;;14.00;9.55;;;15.80;99.90;;;;;;5113944;28;20482;-81
2023/08/11 03:57:06;;;;;;;11.20;8.60;;;15.80;99.90;;;;;;5105989;28;20036;-80
2023/08/11 03:59:33;;;;;;;12.40;9.60;;;15.80;99.90;;;;;;5114324;28;20039;-80
2023/08/11 04:01:58;;;;;;;15.60;8.85;;;15.80;99.90;;;;;;5119043;28;20108;-81
2023/08/11 04:04:24;;;;;;;13.38;9.60;;;15.80;99.90;;;;;;5120629;28;20493;-80
2023/08/11 04:06:51;;;;;;;14.90;9.23;;;15.80;99.90;;;;;;5105965;28;20107;-80
2023/08/11 04:09:18;;;;;;;13.05;8.90;;;15.80;99.90;;;;;;5112988;28;20076;-79
2023/08/11 04:11:44;;;;;;;13.57;9.35;;;15.80;99.90;;;;;;5110820;28;20052;-79
2023/08/11 04:14:10;;;;;;;11.07;8.38;;;15.80;99.90;;;;;;5105909;28;20071;-80
2023/08/11 04:16:35;;;;;;;12.13;8.70;;;15.90;99.90;;;;;;5103368;28;20043;-80
2023/08/11 04:19:01;;;;;;;13.50;8.68;;;15.90;99.90;;;;;;5106003;28;20048;-80
2023/08/11 04:21:27;;;;;;;12.43;9.18;;;15.90;99.90;;;;;;5105305;28;20040;-80
2023/08/11 04:23:54;;;;;;;11.40;8.75;;;15.80;99.90;;;;;;5088177;28;20059;-81
2023/08/11 04:26:20;;;;;;;14.57;8.23;;;15.90;99.90;;;;;;5106357;28;20050;-81
2023/08/11 04:28:46;;;;;;;11.10;8.43;;;15.90;99.90;;;;;;5122597;28;20040;-81
2023/08/11 04:31:13;;;;;;;13.30;8.35;;;16.00;99.90;;;;;;5122854;28;20142;-81
2023/08/11 04:33:41;;;;;;;9.52;8.00;;;16.00;99.90;;;;;;5124205;28;20077;-79
2023/08/11 04:36:07;;;;;;;12.98;8.23;;;16.00;99.90;;;;;;5122467;28;20055;-80
2023/08/11 04:38:33;;;;;;;13.68;8.45;;;16.00;99.90;;;;;;5122121;27;20069;-80
2023/08/11 04:40:59;;;;;;;17.00;8.93;;;16.00;99.90;;;;;;5112840;28;20040;-80
2023/08/11 04:43:24;;;;;;;11.90;8.00;;;16.00;99.90;;;;;;5101106;28;20394;-81
2023/08/11 04:45:50;;;;;;;15.20;8.32;;;16.00;99.90;;;;;;5119019;28;20036;-82
2023/08/11 04:48:16;;;;;;;11.77;8.20;;;16.00;99.90;;;;;;5121788;28;20039;-82
2023/08/11 04:50:46;;;;;;;12.18;7.60;;;16.10;99.90;;;;;;5102767;28;20043;-80
2023/08/11 04:53:12;;;;;;;13.45;8.30;;;16.10;99.90;;;;;;5112830;28;20047;-81
2023/08/11 04:55:39;;;;;;;15.35;8.48;;;16.00;99.90;;;;;;5095272;28;20043;-82
2023/08/11 04:58:05;;;;;;;11.73;7.90;;;16.10;99.90;;;;;;5104527;28;20065;-80
2023/08/11 05:00:31;;;;;;;13.85;7.85;;;16.10;99.90;;;;;;5117586;28;20043;-79
2023/08/11 05:02:57;;;;;;;17.63;8.40;;;16.10;99.90;;;;;;5123138;28;20061;-79
2023/08/11 05:05:23;;;;;;;12.07;7.95;;;16.20;99.90;;;;;;5104416;28;20050;-79
2023/08/11 05:07:50;;;;;;;13.48;8.13;;;16.10;99.90;;;;;;5116531;28;20040;-80
2023/08/11 05:10:16;;;;;;;15.10;8.60;;;16.20;99.90;;;;;;5113224;28;20111;-79
2023/08/11 05:12:42;;;;;;;12.15;8.35;;;16.20;99.90;;;;;;5124982;28;20031;-80
2023/08/11 05:15:08;;;;;;;10.10;8.07;;;16.20;99.90;;;;;;5118468;28;20062;-79
2023/08/11 05:17:33;;;;;;;11.07;7.97;;;16.20;99.90;;;;;;5124066;28;20051;-80
2023/08/11 05:19:59;;;;;;;12.50;8.60;;;16.30;99.90;;;;;;5120725;28;20040;-81
2023/08/11 05:22:25;;;;;;;12.00;7.88;;;16.30;99.90;;;;;;5105320;28;20051;-79
2023/08/11 05:24:52;;;;;;;10.57;7.18;;;16.30;99.90;;;;;;5112870;28;20039;-80
2023/08/11 05:27:18;;;;;;;14.43;7.63;;;16.30;99.90;;;;;;5104733;28;20067;-80
2023/08/11 05:29:46;;;;;;;12.25;7.95;;;16.40;99.90;;;;;;5098582;28;20059;-80
2023/08/11 05:32:15;;;;;;;9.00;7.20;;;16.40;99.90;;;;;;5099595;28;20044;-80
2023/08/11 05:34:42;;;;;;;15.27;8.18;;;16.50;99.90;;;;;;5098367;28;20044;-80
2023/08/11 05:37:08;;;;;;;9.40;7.83;;;16.60;99.90;;;;;;5099945;28;20058;-80
2023/08/11 05:39:33;;;;;;;13.35;7.20;;;16.60;99.90;;;;;;5101250;28;20278;-80
2023/08/11 05:41:59;;;;;;;13.07;7.75;;;16.80;99.90;;;;;;5118503;28;20040;-80
2023/08/11 05:44:25;;;;;;;13.00;7.78;;;16.90;99.90;;;;;;5118937;28;20032;-79
2023/08/11 05:46:50;;;;;;;10.82;8.07;;;17.00;99.90;;;;;;5120958;28;20404;-79
2023/08/11 05:49:16;;;;;;;11.52;7.45;;;17.20;99.90;;;;;;5113232;28;20472;-80
2023/08/11 05:51:42;;;;;;;10.18;7.15;;;17.50;99.90;;;;;;5099761;28;20036;-81
2023/08/11 05:54:08;;;;;;;13.98;7.40;;;17.60;99.90;;;;;;5098058;28;20047;-81
2023/08/11 05:56:33;;;;;;;11.93;6.80;;;17.80;99.90;;;;;;5101237;28;20051;-81
2023/08/11 05:58:59;;;;;;;14.25;6.90;;;17.90;99.90;;;;;;5106579;28;20049;-81
2023/08/11 06:01:25;;;;;;;9.63;7.00;;;18.00;99.90;;;;;;5132081;28;20045;-78
2023/08/11 06:03:50;;;;;;;14.27;7.18;;;18.10;99.90;;;;;;5128158;28;20057;-81
2023/08/11 06:06:16;;;;;;;12.00;7.07;;;18.20;99.90;;;;;;5109829;28;20043;-79
2023/08/11 06:08:42;;;;;;;8.85;6.22;;;18.20;99.90;;;;;;5101611;28;20397;-79
2023/08/11 06:11:08;;;;;;;12.07;6.82;;;18.20;99.90;;;;;;5112860;28;20044;-81
2023/08/11 06:13:33;;;;;;;11.65;6.60;;;18.30;99.90;;;;;;5116591;28;20048;-79
2023/08/11 06:15:59;;;;;;;14.43;6.65;;;18.30;99.90;;;;;;5102155;28;20047;-80
2023/08/11 06:18:25;;;;;;;12.70;7.30;;;18.30;99.90;;;;;;5088881;28;20051;-81
2023/08/11 06:20:52;;;;;;;13.40;6.60;;;18.40;99.90;;;;;;5118694;28;20059;-81
2023/08/11 06:23:18;;;;;;;9.13;5.97;;;18.40;99.90;;;;;;5121378;28;20056;-81
2023/08/11 06:25:44;;;;;;;12.27;6.32;;;18.50;99.90;;;;;;5094968;28;20036;-80
2023/08/11 06:28:10;;;;;;;12.68;6.13;;;18.60;99.90;;;;;;5103622;28;20115;-81
2023/08/11 06:30:35;;;;;;;7.43;5.85;;;18.80;99.90;;;;;;5098985;28;20469;-81
2023/08/11 06:33:01;;;;;;;7.53;5.43;;;18.90;99.90;;;;;;5101063;28;20194;-81
2023/08/11 06:35:27;;;;;;;11.55;5.90;;;19.10;99.90;;;;;;5100247;28;20044;-80
2023/08/11 06:37:53;;;;;;;7.85;5.22;;;19.40;99.90;;;;;;5113652;28;20457;-81
2023/08/11 06:40:18;;;;;;;14.07;5.40;;;19.70;99.90;;;;;;5119543;28;20043;-82
2023/08/11 06:42:44;;;;;;;6.93;4.97;;;20.10;99.90;;;;;;5104593;28;20123;-81
2023/08/11 06:45:10;;;;;;;8.90;5.43;;;20.40;99.90;;;;;;5110943;28;20111;-83
2023/08/11 06:47:38;;;;;;;5.78;4.72;;;20.80;99.90;;;;;;5102361;28;20044;-79
2023/08/11 06:50:04;;;;;;;10.32;4.95;;;20.90;99.90;;;;;;5119257;28;20061;-80
2023/08/11 06:52:29;;;;;;;7.90;5.22;;;20.90;99.90;;;;;;5110031;28;20074;-82
2023/08/11 06:54:55;;;;;;;8.13;4.82;;;20.90;99.90;;;;;;5104611;28;20131;-80
2023/08/11 06:57:21;;;;;;;8.10;5.03;;;20.80;99.90;;;;;;5103399;28;20444;-80
2023/08/11 06:59:49;;;;;;;6.85;4.47;;;20.80;99.90;;;;;;5106474;28;20065;-80
2023/08/11 07:02:17;;;;;;;9.95;4.25;;;20.80;99.90;;;;;;5106474;28;20393;-79
2023/08/11 07:04:43;;;;;;;7.20;4.40;;;20.80;99.90;;;;;;5121401;28;20118;-81
2023/08/11 07:07:09;;;;;;;7.75;4.63;;;20.80;99.90;;;;;;5093810;28;20083;-81
2023/08/11 07:09:34;;;;;;;8.00;4.68;;;20.80;99.90;;;;;;5114010;28;20043;-80
2023/08/11 07:12:00;;;;;;;10.82;4.68;;;20.80;99.90;;;;;;5125232;28;20412;-80
2023/08/11 07:14:29;;;;;;;7.43;4.60;;;20.90;99.90;;;;;;5112591;28;20501;-79
2023/08/11 07:16:54;;;;;;;7.63;4.43;;;21.00;99.90;;;;;;5109275;28;20036;-81
2023/08/11 07:19:21;;;;;;;7.47;4.43;;;21.00;99.90;;;;;;5106740;28;20505;-82
2023/08/11 07:21:47;;;;;;;10.05;4.65;;;21.10;99.90;;;;;;5102948;28;20028;-82
2023/08/11 07:24:12;;;;;;;10.07;4.00;;;21.10;99.90;;;;;;5122011;28;20056;-81
2023/08/11 07:26:38;;;;;;;8.90;4.78;;;21.20;99.90;;;;;;5112671;28;20359;-82
2023/08/11 07:29:03;;;;;;;7.50;4.53;;;21.20;99.90;;;;;;5130332;28;20048;-81
2023/08/11 07:31:29;;;;;;;7.90;4.30;;;21.30;99.90;;;;;;5111450;28;20050;-81
2023/08/11 07:33:55;;;;;;;9.65;4.03;;;21.40;99.90;;;;;;5130795;28;20047;-81
2023/08/11 07:36:20;;;;;;;7.68;4.13;;;21.50;99.90;;;;;;5136043;28;20393;-82
2023/08/11 07:38:47;;;;;;;6.57;4.18;;;21.60;99.90;;;;;;5131622;28;20039;-81
2023/08/11 07:41:12;;;;;;;8.43;3.83;;;21.70;99.90;;;;;;5104787;28;20078;-81
2023/08/11 07:43:38;;;;;;;6.70;3.97;;;21.70;99.90;;;;;;5111651;28;20405;-81
2023/08/11 07:46:04;;;;;;;7.72;3.90;;;21.80;99.90;;;;;;5113731;28;20043;-81
2023/08/11 07:48:30;;;;;;;10.25;4.38;;;21.90;99.90;;;;;;5108669;28;20036;-83
2023/08/11 07:50:56;;;;;;;7.32;4.30;;;22.00;99.90;;;;;;5119861;28;20040;-80
2023/08/11 07:53:21;;;;;;;10.52;4.22;;;22.10;99.90;;;;;;5128371;28;20040;-80
2023/08/11 07:55:48;;;;;;;7.20;4.55;;;22.10;99.90;;;;;;5124661;28;20054;-81
2023/08/11 07:58:14;;;;;;;4.72;3.83;;;22.20;99.90;;;;;;5127110;28;20043;-80
2023/08/11 08:00:39;;;;;;;6.80;3.70;;;22.30;99.90;;;;;;5094818;28;20128;-81
2023/08/11 08:03:05;;;;;;;11.93;4.68;;;22.40;99.90;;;;;;5092498;28;20103;-82
2023/08/11 08:05:31;;;;;;;7.25;4.05;;;22.50;99.90;;;;;;5129284;28;20100;-82
2023/08/11 08:07:57;;;;;;;7.80;3.72;;;22.50;99.90;;;;;;5094529;28;20044;-80
2023/08/11 08:10:25;;;;;;;7.60;3.83;;;22.60;99.90;;;;;;5113314;28;20048;-81
2023/08/11 08:12:51;;;;;;;7.65;4.13;;;22.60;99.90;;;;;;5111353;28;20117;-80
2023/08/11 08:15:17;;;;;;;4.88;3.72;;;22.70;99.90;;;;;;5118223;28;20066;-82
2023/08/11 08:17:43;;;;;;;5.07;3.40;;;22.90;99.90;;;;;;5109413;28;20079;-82
2023/08/11 08:20:13;;;;;;;6.00;3.47;;;22.90;99.90;;;;;;5111949;28;20036;-81
2023/08/11 08:22:39;;;;;;;7.90;3.58;;;23.10;99.90;;;;;;5112388;28;20094;-81
2023/08/11 08:25:08;;;;;;;6.03;3.70;;;23.20;99.90;;;;;;5124397;28;20134;-80
2023/08/11 08:27:34;;;;;;;9.85;3.60;;;23.30;99.90;;;;;;5129713;28;20058;-80
2023/08/11 08:30:00;;;;;;;5.77;3.23;;;23.40;99.90;;;;;;5120456;28;20505;-81
2023/08/11 08:32:27;;;;;;;7.05;3.92;;;23.50;99.90;;;;;;5112834;28;20078;-79
2023/08/11 08:34:52;;;;;;;7.93;3.63;;;23.70;99.90;;;;;;5108369;28;20140;-80
2023/08/11 08:37:19;;;;;;;5.47;3.70;;;23.80;99.90;;;;;;5121526;28;20477;-80
2023/08/11 08:39:47;;;;;;;8.00;3.67;;;23.90;99.90;;;;;;5106594;28;20108;-80
2023/08/11 08:42:16;;;;;;;9.18;3.72;;;24.00;99.90;;;;;;5123511;28;20035;-81
2023/08/11 08:44:42;;;;;;;8.50;3.95;;;24.10;99.90;;;;;;5118242;28;20032;-80
2023/08/11 08:47:09;;;;;;;6.20;4.07;;;24.20;99.90;;;;;;5067608;28;20043;-81
2023/08/11 08:49:37;;;;;;;9.00;3.47;;;24.20;99.90;;;;;;5085860;28;20099;-81
2023/08/11 08:52:05;;;;;;;6.93;3.58;;;24.30;99.90;;;;;;5106697;28;20040;-79
2023/08/11 08:54:32;;;;;;;6.80;3.55;;;24.40;99.90;;;;;;5120428;28;20338;-80
2023/08/11 08:56:59;;;;;;;7.65;3.75;;;24.50;99.90;;;;;;5101898;28;20083;-79
2023/08/11 08:59:24;;;;;;;7.18;3.78;;;24.50;99.90;;;;;;5105151;28;20051;-80
2023/08/11 09:01:50;;;;;;;7.80;3.63;;;24.60;99.90;;;;;;5124480;28;20031;-80
2023/08/11 09:04:18;;;;;;;6.57;3.20;;;24.60;99.90;;;;;;5122435;28;20088;-79
2023/08/11 09:06:44;;;;;;;7.53;3.35;;;24.70;99.90;;;;;;5124021;28;20135;-83
2023/08/11 09:09:10;;;;;;;10.93;3.25;;;24.70;99.90;;;;;;5115799;28;20036;-80
2023/08/11 09:11:39;;;;;;;9.77;3.70;;;24.80;99.90;;;;;;5112516;28;20035;-80
2023/08/11 09:14:08;;;;;;;5.85;2.80;;;24.90;99.90;;;;;;5127659;28;20044;-81
2023/08/11 09:16:34;;;;;;;9.82;3.58;;;24.90;99.90;;;;;;5116787;28;20040;-82
2023/08/11 09:19:01;;;;;;;6.50;3.60;;;25.10;99.90;;;;;;5101819;28;20048;-81
2023/08/11 09:21:26;;;;;;;7.68;3.70;;;25.20;99.90;;;;;;5107789;28;20061;-80
2023/08/11 09:23:57;;;;;;;9.05;3.50;;;25.20;99.90;;;;;;5117808;28;20052;-82
2023/08/11 09:26:24;;;;;;;7.28;3.25;;;25.30;99.90;;;;;;5101174;28;20075;-80
2023/08/11 09:28:54;;;;;;;10.32;3.40;;;25.40;99.90;;;;;;5104658;28;20051;-81
2023/08/11 09:31:24;;;;;;;7.35;3.42;;;25.50;99.90;;;;;;5106879;28;20043;-80
2023/08/11 09:33:51;;;;;;;5.28;2.95;;;25.50;99.90;;;;;;5099835;28;20039;-80
2023/08/11 09:36:18;;;;;;;7.72;3.30;;;25.60;99.90;;;;;;5104293;28;20050;-80
2023/08/11 09:38:48;;;;;;;5.65;2.63;;;25.70;99.90;;;;;;5122443;28;20623;-79
2023/08/11 09:41:15;;;;;;;6.85;3.40;;;25.80;99.90;;;;;;5125676;28;20043;-81
2023/08/11 09:43:47;;;;;;;8.18;3.50;;;25.90;99.90;;;;;;5126169;28;20044;-80
2023/08/11 09:46:12;;;;;;;5.55;3.47;;;25.90;99.90;;;;;;5128208;28;20035;-79
2023/08/11 09:48:38;;;;;;;7.72;2.97;;;26.10;99.90;;;;;;5114190;28;20488;-80
2023/08/11 09:51:10;;;;;;;5.95;3.35;;;26.10;99.90;;;;;;5107778;28;20039;-79
2023/08/11 09:53:40;;;;;;;7.68;3.10;;;26.10;99.90;;;;;;5127576;28;20362;-78
2023/08/11 09:56:12;;;;;;;6.53;3.08;;;26.20;99.90;;;;;;5128628;28;20499;-81
2023/08/11 09:58:39;;;;;;;6.75;2.63;;;26.20;99.90;;;;;;5126892;28;20051;-79
2023/08/11 10:01:12;;;;;;;5.53;2.97;;;26.30;99.90;;;;;;5128196;28;20039;-81
2023/08/11 10:03:44;;;;;;;6.28;2.60;;;26.40;99.90;;;;;;5117554;28;20040;-80
2023/08/11 10:06:18;;;;;;;7.22;3.20;;;26.50;99.70;;;;;;5107390;28;20059;-81
2023/08/11 10:08:46;;;;;;;5.97;2.90;;;26.60;99.00;;;;;;5109266;28;20052;-79
2023/08/11 10:11:12;;;;;;;6.20;2.90;;;26.60;98.90;;;;;;5120896;28;20044;-81
2023/08/11 10:13:41;;;;;;;5.43;2.85;;;26.70;99.10;;;;;;5109467;28;20066;-80
2023/08/11 10:16:08;;;;;;;5.55;2.50;;;26.90;99.20;;;;;;5112613;28;20553;-80
2023/08/11 10:18:35;;;;;;;;;;;27.10;99.10;;;;;;5121316;28;20048;-80
2023/08/11 10:21:02;;;;;;;7.32;2.70;;;27.30;97.90;;;;;;5126247;28;20010;-80
2023/08/11 10:23:29;;;;;;;6.72;3.00;;;27.40;98.50;;;;;;5109483;28;20052;-81
2023/08/11 10:25:55;;;;;;;6.25;3.00;;;27.30;98.20;;;;;;5104087;28;20052;-82
2023/08/11 10:28:22;;;;;;;5.95;2.72;;;27.30;98.50;;;;;;5103286;28;20075;-79
2023/08/11 10:30:56;;;;;;;6.13;2.63;;;27.30;98.30;;;;;;5108259;28;20036;-79
2023/08/11 10:33:22;;;;;;;9.13;2.83;;;27.20;97.40;;;;;;5127904;28;20059;-80
2023/08/11 10:35:51;;;;;;;6.13;2.60;;;27.10;97.90;;;;;;5132615;28;20048;-80
2023/08/11 10:38:28;;;;;;;9.23;2.80;;;27.10;98.30;;;;;;5119191;28;20086;-79
2023/08/11 10:41:05;;;;;;;5.50;2.80;;;27.20;98.30;;;;;;5110252;28;20044;-80
2023/08/11 10:43:41;;;;;;;10.90;2.83;;;27.40;98.20;;;;;;5129677;28;20117;-80
2023/08/11 10:46:24;;;;;;;7.50;2.53;;;27.70;98.30;;;;;;5124686;28;20074;-80
2023/08/11 10:48:59;;;;;;;6.32;2.75;;;28.00;96.90;;;;;;5127112;28;20048;-80
2023/08/11 10:51:33;;;;;;;4.78;2.53;;;28.20;96.70;;;;;;5126990;28;20040;-80
2023/08/11 10:54:11;;;;;;;5.72;2.40;;;28.40;96.60;;;;;;5124509;28;20076;-82
2023/08/11 10:56:42;;;;;;;4.55;2.50;;;28.60;97.30;;;;;;5123951;28;20044;-80
2023/08/11 10:59:18;;;;;;;4.20;2.47;;;28.80;95.50;;;;;;5127199;28;20039;-81
2023/08/11 11:01:46;;;;;;;12.50;2.38;;;29.00;96.10;;;;;;5119121;28;20051;-82
2023/08/11 11:04:13;;;;;;;6.82;2.67;;;29.10;96.40;;;;;;5107344;28;20501;-83
2023/08/11 11:06:39;;;;;;;7.78;3.00;;;29.20;95.40;;;;;;5109525;28;20052;-80
2023/08/11 11:09:08;;;;;;;6.30;2.70;;;29.30;95.60;;;;;;5107021;28;20120;-81
2023/08/11 11:11:36;;;;;;;6.00;2.83;;;29.40;95.70;;;;;;5112200;28;20071;-80
2023/08/11 11:14:03;;;;;;;6.28;2.60;;;29.60;95.10;;;;;;5111290;28;20044;-79
2023/08/11 11:16:30;;;;;;;8.80;2.80;;;29.70;94.50;;;;;;5110057;28;20473;-82
2023/08/11 11:18:55;;;;;;;10.70;2.65;;;29.80;93.70;;;;;;5125135;28;20505;-79
2023/08/11 11:21:22;;;;;;;5.68;2.80;;;29.90;94.00;;;;;;5104897;28;20051;-81
2023/08/11 11:23:49;;;;;;;5.13;2.72;;;29.90;93.50;;;;;;5112895;28;20054;-81
2023/08/11 11:26:21;;;;;;;8.57;2.95;;;30.00;94.10;;;;;;5125965;28;20051;-79
2023/08/11 11:28:47;;;;;;;3.78;2.40;;;30.10;93.30;;;;;;5106426;28;20081;-80
2023/08/11 11:31:15;;;;;;;7.40;2.22;;;30.00;93.00;;;;;;5107066;28;20048;-79
2023/08/11 11:33:41;;;;;;;5.68;2.47;;;30.00;93.10;;;;;;5116157;28;20185;-80
2023/08/11 11:36:08;;;;;;;6.88;2.25;;;29.90;92.50;;;;;;5104943;28;20505;-81
2023/08/11 11:38:33;;;;;;;7.33;2.43;;;29.80;92.30;;;;;;5104719;28;20044;-81
2023/08/11 11:40:59;;;;;;;4.82;2.45;;;30.00;93.30;;;;;;5118226;28;20040;-80
2023/08/11 11:43:25;;;;;;;4.72;2.63;;;30.20;93.20;;;;;;5129856;28;20044;-80
2023/08/11 11:45:52;;;;;;;5.53;2.72;;;30.50;92.70;;;;;;5112458;28;20040;-80
2023/08/11 11:48:19;;;;;;;;;;;30.40;92.50;;;;;;5116349;28;20040;-81
2023/08/11 11:50:46;;;;;;;5.30;2.40;;;30.20;91.70;;;;;;5120602;28;19926;-78
2023/08/11 11:53:12;;;;;;;3.65;2.22;;;30.40;92.40;;;;;;5102810;28;20455;-79
2023/08/11 11:55:47;;;;;;;6.28;2.28;;;30.40;92.30;;;;;;5104003;28;20071;-82
2023/08/11 11:58:17;;;;;;;11.73;2.67;;;30.60;92.50;;;;;;5108148;28;20043;-79
2023/08/11 12:00:45;;;;;;;16.25;2.78;;;30.70;91.80;;;;;;5100583;28;20470;-79
2023/08/11 12:03:11;;;;;;;6.63;3.03;;;30.70;91.20;;;;;;5111304;28;20126;-79
2023/08/11 12:05:39;;;;;;;5.07;2.60;;;30.70;91.20;;;;;;5120210;28;20089;-81
2023/08/11 12:08:23;;;;;;;6.18;2.70;;;30.70;91.40;;;;;;5119343;28;20406;-80
2023/08/11 12:10:49;;;;;;;5.22;2.60;;;30.70;91.40;;;;;;5119008;28;20100;-79
2023/08/11 12:13:16;;;;;;;7.03;2.67;;;30.80;91.80;;;;;;5122058;28;20039;-81
2023/08/11 12:15:43;;;;;;;;;;;30.80;91.50;;;;;;5119208;28;20040;-81
2023/08/11 12:18:10;;;;;;;3.58;2.30;;;30.60;90.60;;;;;;5119409;28;19926;-80
2023/08/11 12:20:36;;;;;;;7.20;2.67;;;30.60;91.10;;;;;;5121787;28;20451;-80
2023/08/11 12:23:02;;;;;;;6.57;2.72;;;30.50;90.90;;;;;;5108250;28;20366;-80
2023/08/11 12:25:28;;;;;;;15.75;2.40;;;30.50;91.30;;;;;;5120620;28;20074;-79
2023/08/11 12:27:54;;;;;;;8.57;2.40;;;30.60;90.70;;;;;;5121577;28;20584;-80
2023/08/11 12:30:20;;;;;;;3.42;2.10;;;30.50;91.20;;;;;;5120327;28;20032;-80
2023/08/11 12:32:45;;;;;;;4.82;2.38;;;30.60;91.30;;;;;;5109185;28;20133;-82
2023/08/11 12:35:11;;;;;;;5.60;2.53;;;30.60;91.00;;;;;;5119104;28;20046;-79
2023/08/11 12:37:44;;;;;;;7.95;2.58;;;30.60;90.70;;;;;;5102072;28;20036;-80
2023/08/11 12:40:10;;;;;;;6.93;2.55;;;30.50;90.50;;;;;;5102932;28;20051;-79
2023/08/11 12:42:36;;;;;;;7.13;2.55;;;30.30;90.60;;;;;;5121284;28;20036;-80